createdAt,value
2022-10-16T00:01:24.804Z,28.80
2022-10-16T00:03:52.744Z,29.20
2022-10-16T00:06:21.633Z,30.40
2022-10-16T00:08:49.184Z,28.02
2022-10-16T00:11:17.578Z,30.67
2022-10-16T00:13:46.570Z,30.55
2022-10-16T00:16:14.511Z,28.67
2022-10-16T00:18:41.951Z,32.85
2022-10-16T00:21:14.514Z,33.97
2022-10-16T00:23:41.512Z,35.55
2022-10-16T00:26:12.126Z,32.22
2022-10-16T00:28:39.759Z,36.55
2022-10-16T00:31:09.007Z,30.23
2022-10-16T00:33:37.101Z,32.50
2022-10-16T00:36:05.778Z,30.63
2022-10-16T00:38:32.998Z,30.60
2022-10-16T00:41:00.326Z,34.38
2022-10-16T00:43:36.869Z,31.00
2022-10-16T00:46:07.306Z,30.58
2022-10-16T00:48:34.419Z,31.83
2022-10-16T00:51:01.385Z,29.85
2022-10-16T00:53:29.113Z,35.17
2022-10-16T00:55:56.589Z,32.55
2022-10-16T00:58:23.681Z,32.97
2022-10-16T01:00:50.690Z,33.95
2022-10-16T01:03:30.170Z,33.20
2022-10-16T01:06:16.335Z,31.48
2022-10-16T01:08:58.470Z,36.03
2022-10-16T01:11:38.594Z,30.58
2022-10-16T01:14:25.663Z,29.45
2022-10-16T01:17:01.754Z,32.83
2022-10-16T01:19:51.678Z,30.40
2022-10-16T01:22:21.521Z,32.97
2022-10-16T01:24:51.077Z,29.73
2022-10-16T01:27:29.738Z,29.58
2022-10-16T01:30:11.132Z,29.75
2022-10-16T01:32:48.185Z,30.83
2022-10-16T01:35:30.977Z,27.50
2022-10-16T01:38:06.290Z,28.52
2022-10-16T01:40:39.527Z,28.15
2022-10-16T01:43:11.942Z,30.55
2022-10-16T01:45:39.758Z,27.63
2022-10-16T01:48:09.253Z,30.38
2022-10-16T01:50:41.224Z,32.35
2022-10-16T01:53:10.397Z,30.75
2022-10-16T01:55:42.662Z,30.45
2022-10-16T01:58:11.653Z,29.55
2022-10-16T02:00:42.980Z,28.52
2022-10-16T02:03:12.497Z,29.15
2022-10-16T02:05:59.870Z,31.20
2022-10-16T02:08:31.207Z,28.98
2022-10-16T02:10:59.477Z,27.50
2022-10-16T02:13:35.630Z,27.55
2022-10-16T02:16:02.703Z,28.60
2022-10-16T02:18:32.098Z,30.38
2022-10-16T02:21:03.814Z,27.58
2022-10-16T02:23:49.853Z,29.40
2022-10-16T02:26:22.315Z,30.38
2022-10-16T02:28:55.891Z,28.27
2022-10-16T02:31:29.393Z,29.38
2022-10-16T02:34:00.121Z,28.00
2022-10-16T02:36:28.552Z,30.38
2022-10-16T02:38:56.237Z,29.90
2022-10-16T02:41:24.805Z,27.05
2022-10-16T02:43:51.724Z,28.90
2022-10-16T02:46:19.783Z,28.27
2022-10-16T02:48:46.787Z,27.35
2022-10-16T02:51:14.134Z,29.15
2022-10-16T02:53:41.231Z,28.83
2022-10-16T02:56:08.675Z,31.80
2022-10-16T02:58:35.589Z,26.98
2022-10-16T03:01:02.491Z,26.60
2022-10-16T03:03:29.499Z,28.25
2022-10-16T03:05:56.683Z,24.77
2022-10-16T03:08:26.825Z,26.02
2022-10-16T03:10:54.194Z,30.15
2022-10-16T03:13:21.846Z,26.58
2022-10-16T03:15:49.038Z,28.95
2022-10-16T03:18:16.166Z,31.02
2022-10-16T03:20:44.297Z,23.80
2022-10-16T03:23:11.560Z,25.10
2022-10-16T03:25:38.849Z,26.92
2022-10-16T03:28:06.790Z,28.27
2022-10-16T03:30:33.754Z,27.55
2022-10-16T03:33:00.722Z,26.48
2022-10-16T03:35:27.654Z,25.70
2022-10-16T03:37:54.704Z,24.42
2022-10-16T03:40:22.065Z,27.75
2022-10-16T03:42:49.104Z,26.30
2022-10-16T03:45:16.034Z,27.40
2022-10-16T03:47:43.031Z,26.30
2022-10-16T03:50:10.455Z,28.63
2022-10-16T03:52:37.444Z,26.27
2022-10-16T03:55:04.703Z,22.70
2022-10-16T03:57:31.618Z,26.58
2022-10-16T03:59:58.587Z,23.75
2022-10-16T04:02:25.653Z,24.13
2022-10-16T04:04:52.883Z,25.20
2022-10-16T04:07:19.890Z,23.08
2022-10-16T04:09:46.834Z,26.05
2022-10-16T04:12:13.769Z,27.40
2022-10-16T04:14:40.718Z,26.50
2022-10-16T04:17:07.658Z,25.15
2022-10-16T04:19:34.573Z,25.27
2022-10-16T04:22:01.517Z,24.55
2022-10-16T04:24:28.437Z,24.95
2022-10-16T04:26:55.388Z,23.58
2022-10-16T04:29:22.533Z,26.13
2022-10-16T04:31:49.523Z,24.40
2022-10-16T04:34:16.483Z,29.27
2022-10-16T04:36:43.413Z,27.30
2022-10-16T04:39:10.345Z,23.23
2022-10-16T04:41:37.267Z,31.35
2022-10-16T04:44:04.226Z,30.55
2022-10-16T04:46:31.239Z,30.13
2022-10-16T04:48:58.302Z,30.45
2022-10-16T04:51:25.490Z,28.42
2022-10-16T04:53:52.586Z,26.98
2022-10-16T04:56:19.761Z,32.45
2022-10-16T04:58:46.834Z,32.90
2022-10-16T05:01:14.825Z,36.25
2022-10-16T05:03:41.777Z,31.90
2022-10-16T05:06:09.051Z,31.90
2022-10-16T05:08:36.062Z,32.03
2022-10-16T05:11:03.211Z,34.15
2022-10-16T05:13:30.191Z,35.97
2022-10-16T05:15:57.277Z,34.67
2022-10-16T05:18:24.301Z,30.00
2022-10-16T05:20:51.241Z,27.58
2022-10-16T05:23:18.248Z,29.60
2022-10-16T05:25:52.900Z,25.38
2022-10-16T05:28:19.932Z,30.10
2022-10-16T05:30:46.811Z,27.98
2022-10-16T05:33:14.689Z,26.23
2022-10-16T05:35:41.784Z,25.02
2022-10-16T05:38:08.743Z,26.70
2022-10-16T05:40:36.268Z,28.27
2022-10-16T05:43:03.389Z,28.23
2022-10-16T05:45:30.347Z,29.40
2022-10-16T05:47:57.501Z,27.42
2022-10-16T05:50:24.444Z,28.52
2022-10-16T05:52:51.395Z,30.55
2022-10-16T05:55:18.326Z,29.08
2022-10-16T05:57:45.470Z,27.20
2022-10-16T06:00:12.658Z,26.88
2022-10-16T06:02:39.850Z,26.27
2022-10-16T06:05:07.064Z,29.10
2022-10-16T06:07:37.415Z,28.20
2022-10-16T06:10:05.744Z,28.13
2022-10-16T06:12:32.691Z,30.13
2022-10-16T06:14:59.627Z,29.95
2022-10-16T06:17:26.750Z,25.83
2022-10-16T06:19:53.835Z,29.67
2022-10-16T06:22:20.785Z,24.05
2022-10-16T06:24:48.933Z,22.10
2022-10-16T06:27:15.903Z,22.98
2022-10-16T06:29:44.394Z,24.85
2022-10-16T06:32:11.370Z,23.10
2022-10-16T06:34:40.639Z,27.00
2022-10-16T06:37:10.235Z,26.30
2022-10-16T06:39:37.224Z,24.38
2022-10-16T06:42:04.172Z,23.20
2022-10-16T06:44:31.123Z,21.20
2022-10-16T06:46:58.051Z,26.08
2022-10-16T06:49:25.194Z,22.48
2022-10-16T06:51:52.188Z,20.38
2022-10-16T06:54:19.323Z,20.40
2022-10-16T06:56:46.270Z,21.73
2022-10-16T06:59:13.201Z,20.48
2022-10-16T07:01:40.138Z,22.58
2022-10-16T07:04:07.185Z,22.20
2022-10-16T07:06:35.197Z,21.83
2022-10-16T07:09:07.430Z,22.30
2022-10-16T07:11:34.854Z,22.38
2022-10-16T07:14:01.938Z,20.73
2022-10-16T07:16:31.331Z,21.67
2022-10-16T07:19:02.578Z,21.67
2022-10-16T07:21:32.264Z,23.88
2022-10-16T07:24:02.577Z,19.90
2022-10-16T07:26:32.474Z,19.35
2022-10-16T07:28:59.803Z,17.35
2022-10-16T07:31:26.854Z,18.70
2022-10-16T07:33:54.229Z,19.67
2022-10-16T07:36:22.419Z,20.05
2022-10-16T07:38:51.030Z,20.98
2022-10-16T07:41:21.266Z,18.58
2022-10-16T07:43:55.725Z,19.30
2022-10-16T07:46:24.190Z,18.30
2022-10-16T07:48:52.203Z,16.05
2022-10-16T07:51:21.396Z,19.15
2022-10-16T07:53:49.097Z,20.20
2022-10-16T07:56:17.486Z,18.00
2022-10-16T07:58:44.756Z,15.90
2022-10-16T08:01:14.696Z,20.63
2022-10-16T08:03:50.955Z,18.83
2022-10-16T08:06:22.100Z,16.08
2022-10-16T08:08:52.618Z,24.88
2022-10-16T08:11:19.589Z,18.73
2022-10-16T08:13:46.670Z,16.02
2022-10-16T08:16:13.706Z,16.38
2022-10-16T08:18:41.992Z,16.40
2022-10-16T08:21:20.091Z,16.55
2022-10-16T08:23:52.877Z,18.40
2022-10-16T08:26:23.937Z,20.77
2022-10-16T08:28:52.809Z,18.63
2022-10-16T08:31:20.126Z,19.00
2022-10-16T08:33:48.328Z,14.55
2022-10-16T08:36:16.994Z,17.23
2022-10-16T08:38:43.987Z,17.15
2022-10-16T08:41:21.507Z,15.10
2022-10-16T08:44:03.522Z,15.18
2022-10-16T08:46:36.561Z,17.60
2022-10-16T08:49:05.370Z,17.17
2022-10-16T08:51:38.047Z,15.35
2022-10-16T08:54:24.874Z,13.98
2022-10-16T08:56:52.098Z,13.05
2022-10-16T08:59:20.558Z,13.43
2022-10-16T09:01:51.343Z,16.17
2022-10-16T09:07:10.648Z,13.10
2022-10-16T09:10:15.293Z,14.57
2022-10-16T09:12:55.496Z,12.88
2022-10-16T09:15:46.843Z,19.88
2022-10-16T09:18:28.688Z,16.02
2022-10-16T09:21:19.681Z,15.43
2022-10-16T09:23:48.425Z,16.95
2022-10-16T09:26:17.634Z,13.20
2022-10-16T09:28:44.888Z,14.40
2022-10-16T09:31:21.420Z,14.65
2022-10-16T09:33:59.230Z,12.82
2022-10-16T09:36:28.779Z,17.52
2022-10-16T09:39:07.607Z,15.18
2022-10-16T09:41:41.181Z,14.07
2022-10-16T09:44:29.339Z,13.85
2022-10-16T09:47:19.372Z,13.23
2022-10-16T09:49:53.667Z,16.20
2022-10-16T09:52:21.414Z,13.68
2022-10-16T09:55:00.318Z,14.13
2022-10-16T09:57:28.239Z,14.35
2022-10-16T09:59:59.799Z,13.82
2022-10-16T10:02:41.728Z,14.20
2022-10-16T10:05:29.767Z,14.90
2022-10-16T10:08:03.501Z,13.00
2022-10-16T10:10:33.250Z,17.23
2022-10-16T10:13:00.759Z,14.07
2022-10-16T10:15:42.696Z,12.45
2022-10-16T10:18:22.951Z,13.57
2022-10-16T10:21:01.701Z,12.48
2022-10-16T10:23:31.211Z,12.57
2022-10-16T10:26:11.285Z,13.93
2022-10-16T10:29:00.542Z,15.60
2022-10-16T10:31:51.986Z,19.85
2022-10-16T10:34:33.939Z,13.27
2022-10-16T10:37:30.110Z,13.43
2022-10-16T10:40:46.887Z,11.98
2022-10-16T10:43:49.186Z,15.77
2022-10-16T10:46:40.892Z,12.10
2022-10-16T10:49:18.390Z,13.35
2022-10-16T10:52:23.849Z,12.60
2022-10-16T10:55:00.460Z,13.52
2022-10-16T10:57:38.887Z,11.93
2022-10-16T11:00:32.265Z,14.02
2022-10-16T11:03:21.982Z,11.35
2022-10-16T11:05:57.930Z,11.32
2022-10-16T11:08:33.926Z,11.52
2022-10-16T11:11:11.236Z,10.60
2022-10-16T11:13:47.079Z,14.02
2022-10-16T11:16:23.349Z,13.32
2022-10-16T11:19:19.691Z,13.45
2022-10-16T11:22:05.930Z,11.02
2022-10-16T11:25:01.046Z,12.73
2022-10-16T11:27:48.175Z,12.52
2022-10-16T11:30:25.567Z,11.00
2022-10-16T11:33:13.584Z,12.88
2022-10-16T11:35:46.906Z,11.77
2022-10-16T11:38:52.785Z,10.57
2022-10-16T11:41:33.340Z,9.93
2022-10-16T11:44:18.976Z,15.05
2022-10-16T11:47:57.453Z,11.35
2022-10-16T11:50:38.688Z,16.42
2022-10-16T11:53:18.460Z,11.15
2022-10-16T11:55:47.498Z,10.73
2022-10-16T11:58:28.548Z,10.20
2022-10-16T12:01:16.762Z,16.80
2022-10-16T12:04:22.043Z,18.00
2022-10-16T12:07:25.485Z,11.40
2022-10-16T12:09:52.493Z,14.52
2022-10-16T12:12:37.990Z,17.10
2022-10-16T12:15:57.621Z,15.27
2022-10-16T12:18:25.702Z,11.82
2022-10-16T12:21:05.667Z,11.20
2022-10-16T12:23:34.090Z,11.43
2022-10-16T12:26:03.770Z,9.85
2022-10-16T12:28:33.250Z,10.25
2022-10-16T12:31:06.822Z,11.07
2022-10-16T12:33:36.758Z,12.88
2022-10-16T12:36:12.354Z,10.37
2022-10-16T12:38:48.678Z,12.50
2022-10-16T12:41:30.118Z,10.65
2022-10-16T12:43:58.308Z,15.52
2022-10-16T12:46:31.310Z,14.75
2022-10-16T12:49:13.290Z,12.90
2022-10-16T12:51:42.269Z,9.77
2022-10-16T12:54:18.475Z,9.60
2022-10-16T12:57:03.579Z,10.05
2022-10-16T12:59:55.216Z,11.65
2022-10-16T13:02:55.881Z,11.70
2022-10-16T13:08:13.877Z,11.63
2022-10-16T13:11:21.503Z,10.68
2022-10-16T13:14:06.021Z,12.30
2022-10-16T13:16:42.144Z,10.30
2022-10-16T13:19:29.815Z,9.90
2022-10-16T13:22:25.235Z,11.70
2022-10-16T13:25:04.200Z,10.80
2022-10-16T13:27:51.359Z,9.88
2022-10-16T13:30:24.629Z,11.25
2022-10-16T13:33:15.795Z,10.63
2022-10-16T13:35:54.783Z,10.43
2022-10-16T13:38:28.386Z,11.85
2022-10-16T13:41:03.808Z,10.93
2022-10-16T13:43:47.096Z,9.27
2022-10-16T13:46:16.439Z,11.93
2022-10-16T13:48:43.896Z,10.65
2022-10-16T13:51:17.984Z,10.68
2022-10-16T13:53:46.788Z,11.50
2022-10-16T13:56:28.857Z,12.25
2022-10-16T13:59:03.850Z,10.70
2022-10-16T14:01:35.055Z,10.40
2022-10-16T14:04:08.553Z,13.00
2022-10-16T14:06:37.772Z,11.80
2022-10-16T14:09:31.924Z,18.27
2022-10-16T14:12:12.398Z,12.73
2022-10-16T14:14:45.323Z,12.10
2022-10-16T14:17:34.179Z,11.68
2022-10-16T14:20:06.694Z,12.25
2022-10-16T14:22:38.441Z,10.43
2022-10-16T14:25:20.801Z,10.07
2022-10-16T14:27:58.717Z,9.15
2022-10-16T14:30:25.977Z,13.75
2022-10-16T14:33:02.375Z,11.73
2022-10-16T14:35:33.834Z,11.27
2022-10-16T14:38:02.590Z,10.13
2022-10-16T14:40:32.764Z,11.02
2022-10-16T14:43:01.157Z,9.80
2022-10-16T14:45:32.352Z,11.73
2022-10-16T14:48:02.239Z,11.57
2022-10-16T14:50:29.882Z,11.27
2022-10-16T14:52:57.345Z,12.73
2022-10-16T14:55:25.274Z,10.50
2022-10-16T14:57:55.587Z,12.05
2022-10-16T15:00:25.923Z,11.05
2022-10-16T15:02:52.932Z,12.32
2022-10-16T15:05:26.242Z,11.07
2022-10-16T15:07:55.831Z,14.00
2022-10-16T15:10:25.109Z,13.37
2022-10-16T15:12:52.821Z,11.35
2022-10-16T15:15:38.567Z,12.95
2022-10-16T15:18:06.162Z,9.75
2022-10-16T15:20:36.381Z,14.82
2022-10-16T15:23:27.812Z,15.40
2022-10-16T15:25:56.427Z,16.85
2022-10-16T15:28:24.740Z,15.48
2022-10-16T15:30:56.670Z,14.73
2022-10-16T15:33:28.758Z,17.27
2022-10-16T15:35:56.202Z,17.05
2022-10-16T15:38:23.973Z,15.20
2022-10-16T15:40:51.233Z,15.52
2022-10-16T15:43:18.482Z,15.70
2022-10-16T15:45:45.867Z,20.08
2022-10-16T15:48:14.923Z,15.80
2022-10-16T15:53:11.488Z,13.70
2022-10-16T15:55:39.163Z,16.17
2022-10-16T15:58:06.818Z,23.50
2022-10-16T16:00:34.120Z,19.60
2022-10-16T16:03:01.106Z,24.75
2022-10-16T16:05:28.870Z,21.73
2022-10-16T16:07:55.879Z,18.83
2022-10-16T16:10:22.896Z,21.55
2022-10-16T16:12:54.205Z,21.35
2022-10-16T16:15:23.398Z,20.13
2022-10-16T16:17:50.757Z,17.42
2022-10-16T16:20:17.890Z,17.45
2022-10-16T16:22:44.878Z,22.10
2022-10-16T16:25:12.272Z,17.52
2022-10-16T16:27:41.611Z,20.35
2022-10-16T16:30:09.106Z,23.83
2022-10-16T16:32:36.739Z,24.67
2022-10-16T16:35:04.984Z,24.95
2022-10-16T16:37:32.217Z,25.02
2022-10-16T16:40:01.920Z,33.70
2022-10-16T16:42:29.248Z,32.78
2022-10-16T16:44:56.385Z,32.30
2022-10-16T16:47:23.809Z,37.45
2022-10-16T16:49:51.063Z,31.35
2022-10-16T16:52:18.204Z,29.75
2022-10-16T16:54:46.261Z,27.75
2022-10-16T16:57:13.224Z,21.60
2022-10-16T16:59:40.255Z,21.38
2022-10-16T17:02:07.384Z,22.23
2022-10-16T17:04:34.525Z,22.13
2022-10-16T17:07:01.490Z,27.02
2022-10-16T17:09:28.531Z,21.42
2022-10-16T17:11:55.513Z,21.50
2022-10-16T17:14:22.458Z,22.70
2022-10-16T17:16:50.130Z,22.67
2022-10-16T17:19:19.256Z,21.63
2022-10-16T17:21:48.973Z,21.60
2022-10-16T17:24:16.431Z,21.08
2022-10-16T17:26:49.338Z,23.00
2022-10-16T17:29:18.816Z,18.83
2022-10-16T17:31:46.560Z,22.55
2022-10-16T17:34:13.820Z,21.40
2022-10-16T17:36:47.209Z,22.50
2022-10-16T17:39:18.146Z,27.23
2022-10-16T17:41:46.296Z,22.80
2022-10-16T17:44:23.220Z,27.52
2022-10-16T17:46:52.931Z,26.40
2022-10-16T17:49:21.435Z,24.67
2022-10-16T17:51:54.273Z,22.38
2022-10-16T17:54:21.821Z,22.50
2022-10-16T17:56:49.082Z,18.17
2022-10-16T17:59:16.862Z,20.40
2022-10-16T18:01:46.591Z,18.25
2022-10-16T18:04:17.523Z,17.60
2022-10-16T18:09:15.429Z,18.55
2022-10-16T18:11:42.627Z,18.67
2022-10-16T18:14:12.775Z,19.77
2022-10-16T18:16:39.969Z,20.58
2022-10-16T18:19:12.067Z,19.75
2022-10-16T18:21:38.994Z,16.17
2022-10-16T18:24:06.087Z,21.20
2022-10-16T18:26:33.512Z,25.92
2022-10-16T18:29:01.293Z,31.45
2022-10-16T18:31:28.937Z,26.38
2022-10-16T18:33:56.449Z,24.42
2022-10-16T18:36:32.962Z,25.15
2022-10-16T18:39:01.616Z,24.17
2022-10-16T18:41:29.313Z,22.33
2022-10-16T18:43:59.562Z,25.83
2022-10-16T18:46:27.360Z,29.98
2022-10-16T18:48:55.987Z,32.10
2022-10-16T18:51:29.689Z,27.85
2022-10-16T18:54:00.229Z,24.15
2022-10-16T18:56:30.720Z,24.35
2022-10-16T18:59:00.290Z,24.17
2022-10-16T19:01:30.512Z,22.75
2022-10-16T19:04:06.484Z,22.42
2022-10-16T19:06:40.318Z,21.95
2022-10-16T19:09:07.525Z,21.38
2022-10-16T19:11:40.494Z,23.30
2022-10-16T19:14:08.366Z,24.00
2022-10-16T19:16:36.520Z,24.73
2022-10-16T19:19:06.255Z,26.65
2022-10-16T19:21:36.843Z,26.95
2022-10-16T19:24:04.553Z,29.20
2022-10-16T19:26:34.808Z,30.05
2022-10-16T19:29:05.773Z,33.28
2022-10-16T19:31:33.245Z,63.45
2022-10-16T19:34:03.371Z,51.70
2022-10-16T19:36:33.086Z,32.72
2022-10-16T19:39:02.510Z,25.08
2022-10-16T19:41:30.676Z,23.70
2022-10-16T19:44:05.645Z,23.65
2022-10-16T19:46:34.062Z,27.65
2022-10-16T19:49:03.829Z,28.65
2022-10-16T19:51:31.796Z,21.33
2022-10-16T19:54:01.647Z,22.90
2022-10-16T19:56:29.843Z,20.17
2022-10-16T19:58:58.319Z,19.70
2022-10-16T20:01:27.592Z,23.15
2022-10-16T20:03:55.053Z,21.33
2022-10-16T20:06:22.273Z,24.50
2022-10-16T20:08:51.959Z,19.10
2022-10-16T20:11:28.320Z,18.92
2022-10-16T20:13:55.783Z,18.17
2022-10-16T20:16:23.223Z,22.67
2022-10-16T20:18:51.978Z,22.33
2022-10-16T20:21:25.394Z,19.60
2022-10-16T20:23:52.633Z,20.55
2022-10-16T20:26:22.591Z,21.02
2022-10-16T20:28:50.940Z,20.10
2022-10-16T20:31:23.008Z,21.65
2022-10-16T20:33:54.127Z,23.85
2022-10-16T20:36:22.863Z,21.50
2022-10-16T20:38:49.912Z,26.52
2022-10-16T20:41:18.062Z,29.13
2022-10-16T20:43:47.253Z,23.90
2022-10-16T20:46:17.255Z,23.75
2022-10-16T20:48:45.144Z,28.00
2022-10-16T20:51:19.503Z,22.65
2022-10-16T20:53:48.575Z,23.88
2022-10-16T20:56:18.564Z,20.52
2022-10-16T20:58:46.217Z,22.27
2022-10-16T21:01:16.738Z,21.27
2022-10-16T21:03:45.502Z,23.05
2022-10-16T21:06:12.533Z,24.23
2022-10-16T21:08:42.217Z,23.08
2022-10-16T21:11:21.796Z,26.92
2022-10-16T21:13:49.122Z,25.48
2022-10-16T21:16:16.659Z,23.02
2022-10-16T21:18:44.953Z,24.48
2022-10-16T21:21:29.561Z,23.10
2022-10-16T21:23:57.991Z,23.58
2022-10-16T21:26:26.721Z,24.45
2022-10-16T21:28:58.324Z,24.13
2022-10-16T21:31:25.622Z,20.50
2022-10-16T21:33:53.196Z,30.05
2022-10-16T21:36:23.762Z,25.83
2022-10-16T21:38:51.207Z,26.67
2022-10-16T21:41:27.245Z,25.23
2022-10-16T21:43:55.326Z,24.52
2022-10-16T21:46:26.251Z,26.48
2022-10-16T21:48:54.490Z,24.08
2022-10-16T21:51:21.467Z,26.55
2022-10-16T21:53:48.420Z,25.17
2022-10-16T21:56:17.568Z,24.30
2022-10-16T21:58:45.408Z,24.30
2022-10-16T22:01:16.123Z,25.88
2022-10-16T22:06:12.554Z,25.85
2022-10-16T22:08:40.265Z,28.60
2022-10-16T22:11:15.281Z,24.13
2022-10-16T22:13:43.087Z,27.10
2022-10-16T22:16:11.244Z,28.38
2022-10-16T22:18:39.902Z,25.55
2022-10-16T22:21:08.108Z,25.42
2022-10-16T22:23:35.501Z,26.83
2022-10-16T22:26:08.034Z,28.55
2022-10-16T22:28:35.323Z,27.85
2022-10-16T22:31:04.808Z,31.90
2022-10-16T22:36:04.522Z,28.45
2022-10-16T22:38:32.968Z,29.90
2022-10-16T22:41:11.225Z,26.88
2022-10-16T22:43:40.176Z,28.95
2022-10-16T22:46:09.662Z,30.08
2022-10-16T22:48:37.411Z,26.40
2022-10-16T22:51:08.214Z,27.05
2022-10-16T22:56:02.212Z,30.55
2022-10-16T22:58:29.962Z,27.38
2022-10-16T23:03:25.159Z,26.13
2022-10-16T23:05:52.469Z,33.63
2022-10-16T23:08:19.420Z,31.83
2022-10-16T23:10:48.257Z,28.83
2022-10-16T23:13:15.267Z,32.63
2022-10-16T23:15:45.697Z,27.70
2022-10-16T23:18:13.078Z,26.00
2022-10-16T23:20:40.989Z,28.20
2022-10-16T23:23:08.782Z,27.27
2022-10-16T23:25:36.829Z,32.92
2022-10-16T23:28:04.607Z,28.48
2022-10-16T23:30:31.647Z,30.45
2022-10-16T23:32:58.611Z,32.55
2022-10-16T23:35:25.605Z,31.67
2022-10-16T23:37:52.607Z,26.23
2022-10-16T23:40:19.553Z,30.00
2022-10-16T23:42:46.527Z,31.52
2022-10-16T23:45:13.501Z,28.25
2022-10-16T23:47:41.893Z,33.70
2022-10-16T23:50:10.083Z,34.20
2022-10-16T23:52:37.068Z,30.88
2022-10-16T23:55:04.927Z,28.55
2022-10-16T23:57:31.889Z,27.83
2022-10-16T23:59:58.808Z,34.28
